sensor_id;sensor_type;location;lat;lon;timestamp;P1;durP1;ratioP1;P2;durP2;ratioP2
24644;SDS011;12780;45.502;9.146;2022-09-12T00:00:44;5.90;;;2.92;;
24644;SDS011;12780;45.502;9.146;2022-09-12T00:03:10;5.72;;;2.00;;
24644;SDS011;12780;45.502;9.146;2022-09-12T00:05:45;4.28;;;2.75;;
24644;SDS011;12780;45.502;9.146;2022-09-12T00:08:12;3.63;;;2.13;;
24644;SDS011;12780;45.502;9.146;2022-09-12T00:10:41;6.40;;;2.25;;
24644;SDS011;12780;45.502;9.146;2022-09-12T00:13:08;6.05;;;2.33;;
24644;SDS011;12780;45.502;9.146;2022-09-12T00:15:38;6.40;;;2.17;;
24644;SDS011;12780;45.502;9.146;2022-09-12T00:20:33;4.05;;;2.38;;
24644;SDS011;12780;45.502;9.146;2022-09-12T00:22:59;4.25;;;2.33;;
24644;SDS011;12780;45.502;9.146;2022-09-12T00:25:25;7.88;;;2.13;;
24644;SDS011;12780;45.502;9.146;2022-09-12T00:27:51;8.43;;;2.45;;
24644;SDS011;12780;45.502;9.146;2022-09-12T00:30:17;6.45;;;1.95;;
24644;SDS011;12780;45.502;9.146;2022-09-12T00:32:42;4.18;;;2.00;;
24644;SDS011;12780;45.502;9.146;2022-09-12T00:35:09;5.40;;;2.15;;
24644;SDS011;12780;45.502;9.146;2022-09-12T00:37:34;5.55;;;1.95;;
24644;SDS011;12780;45.502;9.146;2022-09-12T00:40:00;4.43;;;2.00;;
24644;SDS011;12780;45.502;9.146;2022-09-12T00:42:26;4.70;;;2.10;;
24644;SDS011;12780;45.502;9.146;2022-09-12T00:44:51;5.40;;;2.45;;
24644;SDS011;12780;45.502;9.146;2022-09-12T00:47:26;4.30;;;1.88;;
24644;SDS011;12780;45.502;9.146;2022-09-12T00:50:12;8.88;;;2.33;;
24644;SDS011;12780;45.502;9.146;2022-09-12T00:52:40;4.80;;;1.83;;
24644;SDS011;12780;45.502;9.146;2022-09-12T00:55:17;4.97;;;2.20;;
24644;SDS011;12780;45.502;9.146;2022-09-12T01:00:21;8.43;;;2.15;;
24644;SDS011;12780;45.502;9.146;2022-09-12T01:02:49;3.90;;;2.35;;
24644;SDS011;12780;45.502;9.146;2022-09-12T01:05:19;5.07;;;2.28;;
24644;SDS011;12780;45.502;9.146;2022-09-12T01:07:46;5.90;;;1.95;;
24644;SDS011;12780;45.502;9.146;2022-09-12T01:10:14;5.35;;;2.25;;
24644;SDS011;12780;45.502;9.146;2022-09-12T01:12:40;7.10;;;1.95;;
24644;SDS011;12780;45.502;9.146;2022-09-12T01:15:07;3.50;;;2.03;;
24644;SDS011;12780;45.502;9.146;2022-09-12T01:30:49;3.35;;;1.95;;
24644;SDS011;12780;45.502;9.146;2022-09-12T01:33:32;6.60;;;2.25;;
24644;SDS011;12780;45.502;9.146;2022-09-12T01:46:54;5.20;;;1.90;;
24644;SDS011;12780;45.502;9.146;2022-09-12T01:49:35;6.75;;;2.00;;
24644;SDS011;12780;45.502;9.146;2022-09-12T01:55:15;6.70;;;2.70;;
24644;SDS011;12780;45.502;9.146;2022-09-12T01:57:55;4.35;;;2.20;;
24644;SDS011;12780;45.502;9.146;2022-09-12T02:00:30;3.45;;;1.98;;
24644;SDS011;12780;45.502;9.146;2022-09-12T02:03:08;3.85;;;2.17;;
24644;SDS011;12780;45.502;9.146;2022-09-12T02:05:43;4.15;;;2.03;;
24644;SDS011;12780;45.502;9.146;2022-09-12T02:08:18;8.70;;;2.35;;
24644;SDS011;12780;45.502;9.146;2022-09-12T02:10:51;3.83;;;1.67;;
24644;SDS011;12780;45.502;9.146;2022-09-12T02:13:25;6.35;;;2.10;;
24644;SDS011;12780;45.502;9.146;2022-09-12T02:15:56;5.32;;;2.20;;
24644;SDS011;12780;45.502;9.146;2022-09-12T02:18:27;3.47;;;2.13;;
24644;SDS011;12780;45.502;9.146;2022-09-12T02:20:56;5.32;;;2.13;;
24644;SDS011;12780;45.502;9.146;2022-09-12T02:23:25;3.58;;;2.08;;
24644;SDS011;12780;45.502;9.146;2022-09-12T02:25:53;3.33;;;1.83;;
24644;SDS011;12780;45.502;9.146;2022-09-12T02:28:25;8.85;;;1.80;;
24644;SDS011;12780;45.502;9.146;2022-09-12T02:30:58;5.07;;;1.95;;
24644;SDS011;12780;45.502;9.146;2022-09-12T02:33:40;4.47;;;2.00;;
24644;SDS011;12780;45.502;9.146;2022-09-12T02:36:25;3.13;;;2.10;;
24644;SDS011;12780;45.502;9.146;2022-09-12T02:41:29;3.90;;;2.03;;
24644;SDS011;12780;45.502;9.146;2022-09-12T02:43:55;5.88;;;1.80;;
24644;SDS011;12780;45.502;9.146;2022-09-12T02:46:22;4.15;;;2.20;;
24644;SDS011;12780;45.502;9.146;2022-09-12T02:48:52;3.47;;;1.90;;
24644;SDS011;12780;45.502;9.146;2022-09-12T02:51:19;3.08;;;1.90;;
24644;SDS011;12780;45.502;9.146;2022-09-12T02:53:45;5.93;;;2.05;;
24644;SDS011;12780;45.502;9.146;2022-09-12T02:56:12;1.88;;;1.52;;
24644;SDS011;12780;45.502;9.146;2022-09-12T02:58:43;4.63;;;2.07;;
24644;SDS011;12780;45.502;9.146;2022-09-12T03:01:22;4.50;;;2.10;;
24644;SDS011;12780;45.502;9.146;2022-09-12T03:04:09;5.25;;;1.73;;
24644;SDS011;12780;45.502;9.146;2022-09-12T03:09:38;3.97;;;2.00;;
24644;SDS011;12780;45.502;9.146;2022-09-12T03:18:14;9.27;;;2.25;;
24644;SDS011;12780;45.502;9.146;2022-09-12T03:29:19;5.20;;;2.03;;
24644;SDS011;12780;45.502;9.146;2022-09-12T03:31:50;5.18;;;2.17;;
24644;SDS011;12780;45.502;9.146;2022-09-12T03:34:18;5.25;;;2.13;;
24644;SDS011;12780;45.502;9.146;2022-09-12T03:36:45;4.18;;;1.58;;
24644;SDS011;12780;45.502;9.146;2022-09-12T03:39:11;6.40;;;2.20;;
24644;SDS011;12780;45.502;9.146;2022-09-12T03:41:37;6.97;;;1.90;;
24644;SDS011;12780;45.502;9.146;2022-09-12T03:44:03;6.75;;;2.20;;
24644;SDS011;12780;45.502;9.146;2022-09-12T03:46:29;5.15;;;1.95;;
24644;SDS011;12780;45.502;9.146;2022-09-12T03:48:54;5.38;;;2.15;;
24644;SDS011;12780;45.502;9.146;2022-09-12T03:51:20;6.28;;;2.20;;
24644;SDS011;12780;45.502;9.146;2022-09-12T03:53:46;5.25;;;2.17;;
24644;SDS011;12780;45.502;9.146;2022-09-12T03:56:12;7.05;;;2.83;;
24644;SDS011;12780;45.502;9.146;2022-09-12T03:58:38;10.02;;;2.30;;
24644;SDS011;12780;45.502;9.146;2022-09-12T04:01:11;9.23;;;2.47;;
24644;SDS011;12780;45.502;9.146;2022-09-12T04:03:39;7.05;;;2.28;;
24644;SDS011;12780;45.502;9.146;2022-09-12T04:06:05;4.32;;;2.00;;
24644;SDS011;12780;45.502;9.146;2022-09-12T04:08:33;4.68;;;2.10;;
24644;SDS011;12780;45.502;9.146;2022-09-12T04:11:06;6.10;;;2.13;;
24644;SDS011;12780;45.502;9.146;2022-09-12T04:13:34;4.72;;;1.90;;
24644;SDS011;12780;45.502;9.146;2022-09-12T04:16:00;4.50;;;1.85;;
24644;SDS011;12780;45.502;9.146;2022-09-12T04:18:26;4.03;;;1.98;;
24644;SDS011;12780;45.502;9.146;2022-09-12T04:20:52;4.65;;;2.30;;
24644;SDS011;12780;45.502;9.146;2022-09-12T04:23:18;5.53;;;2.15;;
24644;SDS011;12780;45.502;9.146;2022-09-12T04:25:43;6.50;;;2.35;;
24644;SDS011;12780;45.502;9.146;2022-09-12T04:30:42;7.88;;;1.98;;
24644;SDS011;12780;45.502;9.146;2022-09-12T04:33:08;5.03;;;2.05;;
24644;SDS011;12780;45.502;9.146;2022-09-12T04:35:34;6.57;;;2.03;;
24644;SDS011;12780;45.502;9.146;2022-09-12T04:38:00;8.43;;;2.17;;
24644;SDS011;12780;45.502;9.146;2022-09-12T04:40:27;4.30;;;1.88;;
24644;SDS011;12780;45.502;9.146;2022-09-12T04:42:54;3.75;;;2.00;;
24644;SDS011;12780;45.502;9.146;2022-09-12T04:45:20;6.35;;;2.50;;
24644;SDS011;12780;45.502;9.146;2022-09-12T04:47:46;5.35;;;2.55;;
24644;SDS011;12780;45.502;9.146;2022-09-12T04:50:12;7.63;;;2.28;;
24644;SDS011;12780;45.502;9.146;2022-09-12T04:52:39;5.13;;;2.35;;
24644;SDS011;12780;45.502;9.146;2022-09-12T04:55:05;6.22;;;2.08;;
24644;SDS011;12780;45.502;9.146;2022-09-12T04:57:31;3.60;;;1.95;;
24644;SDS011;12780;45.502;9.146;2022-09-12T04:59:57;5.47;;;2.30;;
24644;SDS011;12780;45.502;9.146;2022-09-12T05:02:23;5.10;;;2.20;;
24644;SDS011;12780;45.502;9.146;2022-09-12T05:04:49;5.03;;;1.98;;
24644;SDS011;12780;45.502;9.146;2022-09-12T05:07:16;10.38;;;3.10;;
24644;SDS011;12780;45.502;9.146;2022-09-12T05:09:43;6.68;;;2.80;;
24644;SDS011;12780;45.502;9.146;2022-09-12T05:12:09;6.10;;;2.67;;
24644;SDS011;12780;45.502;9.146;2022-09-12T05:14:35;8.50;;;3.15;;
24644;SDS011;12780;45.502;9.146;2022-09-12T05:17:01;10.32;;;2.67;;
24644;SDS011;12780;45.502;9.146;2022-09-12T05:19:28;3.50;;;2.10;;
24644;SDS011;12780;45.502;9.146;2022-09-12T05:21:54;4.88;;;2.00;;
24644;SDS011;12780;45.502;9.146;2022-09-12T05:24:20;7.93;;;2.20;;
24644;SDS011;12780;45.502;9.146;2022-09-12T05:26:46;6.97;;;2.40;;
24644;SDS011;12780;45.502;9.146;2022-09-12T05:29:11;5.70;;;2.38;;
24644;SDS011;12780;45.502;9.146;2022-09-12T05:31:37;6.15;;;2.33;;
24644;SDS011;12780;45.502;9.146;2022-09-12T05:34:03;6.13;;;2.45;;
24644;SDS011;12780;45.502;9.146;2022-09-12T05:36:31;6.50;;;2.40;;
24644;SDS011;12780;45.502;9.146;2022-09-12T05:38:58;6.15;;;1.98;;
24644;SDS011;12780;45.502;9.146;2022-09-12T05:41:25;5.60;;;1.70;;
24644;SDS011;12780;45.502;9.146;2022-09-12T05:43:55;5.03;;;1.80;;
24644;SDS011;12780;45.502;9.146;2022-09-12T05:46:23;8.27;;;2.00;;
24644;SDS011;12780;45.502;9.146;2022-09-12T05:48:51;4.72;;;2.00;;
24644;SDS011;12780;45.502;9.146;2022-09-12T05:51:20;5.88;;;1.88;;
24644;SDS011;12780;45.502;9.146;2022-09-12T05:53:47;7.57;;;1.80;;
24644;SDS011;12780;45.502;9.146;2022-09-12T05:56:17;5.47;;;2.03;;
24644;SDS011;12780;45.502;9.146;2022-09-12T05:58:45;11.18;;;2.38;;
24644;SDS011;12780;45.502;9.146;2022-09-12T06:01:13;8.18;;;2.65;;
24644;SDS011;12780;45.502;9.146;2022-09-12T06:03:41;6.07;;;2.05;;
24644;SDS011;12780;45.502;9.146;2022-09-12T06:06:11;4.65;;;1.73;;
24644;SDS011;12780;45.502;9.146;2022-09-12T06:08:39;7.57;;;2.42;;
24644;SDS011;12780;45.502;9.146;2022-09-12T06:11:06;8.57;;;2.33;;
24644;SDS011;12780;45.502;9.146;2022-09-12T06:13:34;7.65;;;2.10;;
24644;SDS011;12780;45.502;9.146;2022-09-12T06:16:04;8.30;;;1.85;;
24644;SDS011;12780;45.502;9.146;2022-09-12T06:18:35;10.93;;;2.20;;
24644;SDS011;12780;45.502;9.146;2022-09-12T06:21:05;11.00;;;2.35;;
24644;SDS011;12780;45.502;9.146;2022-09-12T06:23:33;13.88;;;2.70;;
24644;SDS011;12780;45.502;9.146;2022-09-12T06:25:58;11.07;;;2.40;;
24644;SDS011;12780;45.502;9.146;2022-09-12T06:28:24;6.43;;;2.30;;
24644;SDS011;12780;45.502;9.146;2022-09-12T06:30:50;6.95;;;2.65;;
24644;SDS011;12780;45.502;9.146;2022-09-12T06:33:16;8.15;;;2.35;;
24644;SDS011;12780;45.502;9.146;2022-09-12T06:35:42;9.27;;;2.80;;
24644;SDS011;12780;45.502;9.146;2022-09-12T06:38:08;11.05;;;2.45;;
24644;SDS011;12780;45.502;9.146;2022-09-12T06:40:34;5.35;;;2.17;;
24644;SDS011;12780;45.502;9.146;2022-09-12T06:43:06;6.43;;;2.35;;
24644;SDS011;12780;45.502;9.146;2022-09-12T06:45:32;7.28;;;2.40;;
24644;SDS011;12780;45.502;9.146;2022-09-12T06:47:57;14.63;;;2.42;;
24644;SDS011;12780;45.502;9.146;2022-09-12T06:50:23;7.47;;;2.72;;
24644;SDS011;12780;45.502;9.146;2022-09-12T06:52:49;9.48;;;2.72;;
24644;SDS011;12780;45.502;9.146;2022-09-12T06:55:15;13.30;;;2.85;;
24644;SDS011;12780;45.502;9.146;2022-09-12T06:57:41;8.68;;;2.85;;
24644;SDS011;12780;45.502;9.146;2022-09-12T07:00:08;11.88;;;2.67;;
24644;SDS011;12780;45.502;9.146;2022-09-12T07:02:34;7.50;;;2.83;;
24644;SDS011;12780;45.502;9.146;2022-09-12T07:05:00;16.13;;;2.55;;
24644;SDS011;12780;45.502;9.146;2022-09-12T07:07:25;10.63;;;2.90;;
24644;SDS011;12780;45.502;9.146;2022-09-12T07:09:51;8.52;;;2.75;;
24644;SDS011;12780;45.502;9.146;2022-09-12T07:12:17;5.03;;;2.70;;
24644;SDS011;12780;45.502;9.146;2022-09-12T07:14:42;7.18;;;2.83;;
24644;SDS011;12780;45.502;9.146;2022-09-12T07:17:08;9.73;;;2.80;;
24644;SDS011;12780;45.502;9.146;2022-09-12T07:19:33;6.38;;;2.90;;
24644;SDS011;12780;45.502;9.146;2022-09-12T07:21:59;5.63;;;2.03;;
24644;SDS011;12780;45.502;9.146;2022-09-12T07:24:25;7.32;;;2.55;;
24644;SDS011;12780;45.502;9.146;2022-09-12T07:26:51;4.20;;;2.58;;
24644;SDS011;12780;45.502;9.146;2022-09-12T07:29:16;6.47;;;2.60;;
24644;SDS011;12780;45.502;9.146;2022-09-12T07:31:42;5.18;;;2.40;;
24644;SDS011;12780;45.502;9.146;2022-09-12T07:34:08;11.38;;;2.35;;
24644;SDS011;12780;45.502;9.146;2022-09-12T07:36:34;10.10;;;2.25;;
24644;SDS011;12780;45.502;9.146;2022-09-12T07:39:01;6.72;;;2.20;;
24644;SDS011;12780;45.502;9.146;2022-09-12T07:41:27;6.25;;;1.90;;
24644;SDS011;12780;45.502;9.146;2022-09-12T07:43:55;6.30;;;2.08;;
24644;SDS011;12780;45.502;9.146;2022-09-12T07:46:23;6.80;;;2.10;;
24644;SDS011;12780;45.502;9.146;2022-09-12T07:48:53;4.28;;;1.80;;
24644;SDS011;12780;45.502;9.146;2022-09-12T07:51:20;5.05;;;1.70;;
24644;SDS011;12780;45.502;9.146;2022-09-12T07:53:46;4.18;;;2.10;;
24644;SDS011;12780;45.502;9.146;2022-09-12T07:56:13;6.60;;;2.00;;
24644;SDS011;12780;45.502;9.146;2022-09-12T07:58:41;6.47;;;1.55;;
24644;SDS011;12780;45.502;9.146;2022-09-12T08:01:17;3.42;;;1.63;;
24644;SDS011;12780;45.502;9.146;2022-09-12T08:03:45;9.85;;;1.95;;
24644;SDS011;12780;45.502;9.146;2022-09-12T08:08:44;5.38;;;2.33;;
24644;SDS011;12780;45.502;9.146;2022-09-12T08:11:11;6.78;;;2.20;;
24644;SDS011;12780;45.502;9.146;2022-09-12T08:13:38;5.38;;;2.13;;
24644;SDS011;12780;45.502;9.146;2022-09-12T08:16:06;5.75;;;2.10;;
24644;SDS011;12780;45.502;9.146;2022-09-12T08:18:33;11.18;;;2.33;;
24644;SDS011;12780;45.502;9.146;2022-09-12T08:21:07;6.82;;;2.33;;
24644;SDS011;12780;45.502;9.146;2022-09-12T08:23:42;3.42;;;1.98;;
24644;SDS011;12780;45.502;9.146;2022-09-12T08:26:08;7.30;;;2.17;;
24644;SDS011;12780;45.502;9.146;2022-09-12T08:28:35;13.30;;;2.28;;
24644;SDS011;12780;45.502;9.146;2022-09-12T08:31:02;7.15;;;2.20;;
24644;SDS011;12780;45.502;9.146;2022-09-12T08:33:29;5.85;;;2.17;;
24644;SDS011;12780;45.502;9.146;2022-09-12T08:36:04;6.88;;;2.30;;
24644;SDS011;12780;45.502;9.146;2022-09-12T08:38:33;4.28;;;1.80;;
24644;SDS011;12780;45.502;9.146;2022-09-12T08:41:02;5.18;;;1.80;;
24644;SDS011;12780;45.502;9.146;2022-09-12T08:46:34;5.78;;;2.08;;
24644;SDS011;12780;45.502;9.146;2022-09-12T08:55:12;6.85;;;2.60;;
24644;SDS011;12780;45.502;9.146;2022-09-12T08:57:51;9.20;;;2.83;;
24644;SDS011;12780;45.502;9.146;2022-09-12T09:00:17;5.95;;;2.03;;
24644;SDS011;12780;45.502;9.146;2022-09-12T09:05:44;11.18;;;2.40;;
24644;SDS011;12780;45.502;9.146;2022-09-12T09:17:02;7.20;;;2.33;;
24644;SDS011;12780;45.502;9.146;2022-09-12T09:19:37;8.18;;;2.28;;
24644;SDS011;12780;45.502;9.146;2022-09-12T09:22:11;10.43;;;2.08;;
24644;SDS011;12780;45.502;9.146;2022-09-12T09:24:44;5.30;;;3.05;;
24644;SDS011;12780;45.502;9.146;2022-09-12T09:29:57;9.02;;;2.38;;
24644;SDS011;12780;45.502;9.146;2022-09-12T09:32:28;7.20;;;2.63;;
24644;SDS011;12780;45.502;9.146;2022-09-12T09:35:14;7.90;;;2.75;;
24644;SDS011;12780;45.502;9.146;2022-09-12T09:37:43;6.45;;;2.63;;
24644;SDS011;12780;45.502;9.146;2022-09-12T09:43:36;11.70;;;3.00;;
24644;SDS011;12780;45.502;9.146;2022-09-12T09:46:02;6.38;;;2.60;;
24644;SDS011;12780;45.502;9.146;2022-09-12T09:48:33;10.52;;;2.85;;
24644;SDS011;12780;45.502;9.146;2022-09-12T09:51:02;9.25;;;2.80;;
24644;SDS011;12780;45.502;9.146;2022-09-12T09:53:40;7.32;;;2.85;;
24644;SDS011;12780;45.502;9.146;2022-09-12T09:56:32;7.10;;;2.90;;
24644;SDS011;12780;45.502;9.146;2022-09-12T09:59:11;8.45;;;2.97;;
24644;SDS011;12780;45.502;9.146;2022-09-12T10:01:54;6.93;;;2.92;;
24644;SDS011;12780;45.502;9.146;2022-09-12T10:04:28;6.28;;;2.72;;
24644;SDS011;12780;45.502;9.146;2022-09-12T10:06:57;7.25;;;2.58;;
24644;SDS011;12780;45.502;9.146;2022-09-12T10:09:34;5.70;;;2.13;;
24644;SDS011;12780;45.502;9.146;2022-09-12T10:12:01;11.18;;;2.33;;
24644;SDS011;12780;45.502;9.146;2022-09-12T10:14:55;5.53;;;2.40;;
24644;SDS011;12780;45.502;9.146;2022-09-12T10:17:56;5.03;;;2.35;;
24644;SDS011;12780;45.502;9.146;2022-09-12T10:23:03;8.43;;;2.45;;
24644;SDS011;12780;45.502;9.146;2022-09-12T10:25:52;8.07;;;2.28;;
24644;SDS011;12780;45.502;9.146;2022-09-12T10:28:22;5.22;;;3.40;;
24644;SDS011;12780;45.502;9.146;2022-09-12T10:30:56;6.20;;;2.60;;
24644;SDS011;12780;45.502;9.146;2022-09-12T10:33:23;6.22;;;3.28;;
24644;SDS011;12780;45.502;9.146;2022-09-12T10:35:51;5.63;;;3.08;;
24644;SDS011;12780;45.502;9.146;2022-09-12T10:38:20;7.65;;;3.38;;
24644;SDS011;12780;45.502;9.146;2022-09-12T10:41:05;5.78;;;2.92;;
24644;SDS011;12780;45.502;9.146;2022-09-12T10:43:34;5.65;;;2.92;;
24644;SDS011;12780;45.502;9.146;2022-09-12T10:48:42;11.95;;;4.13;;
24644;SDS011;12780;45.502;9.146;2022-09-12T10:51:25;11.25;;;3.50;;
24644;SDS011;12780;45.502;9.146;2022-09-12T10:53:59;7.38;;;3.60;;
24644;SDS011;12780;45.502;9.146;2022-09-12T11:04:26;10.05;;;3.78;;
24644;SDS011;12780;45.502;9.146;2022-09-12T11:07:20;8.52;;;3.38;;
24644;SDS011;12780;45.502;9.146;2022-09-12T11:26:59;11.48;;;3.67;;
24644;SDS011;12780;45.502;9.146;2022-09-12T11:34:54;8.07;;;3.17;;
24644;SDS011;12780;45.502;9.146;2022-09-12T11:42:41;5.35;;;3.60;;
24644;SDS011;12780;45.502;9.146;2022-09-12T11:47:56;7.97;;;3.30;;
24644;SDS011;12780;45.502;9.146;2022-09-12T11:50:28;10.70;;;3.15;;
24644;SDS011;12780;45.502;9.146;2022-09-12T11:53:02;8.43;;;3.70;;
24644;SDS011;12780;45.502;9.146;2022-09-12T11:58:30;6.15;;;2.70;;
24644;SDS011;12780;45.502;9.146;2022-09-12T12:00:57;6.50;;;2.92;;
24644;SDS011;12780;45.502;9.146;2022-09-12T12:03:45;12.73;;;3.42;;
24644;SDS011;12780;45.502;9.146;2022-09-12T12:06:26;7.47;;;3.03;;
24644;SDS011;12780;45.502;9.146;2022-09-12T12:08:58;5.03;;;2.72;;
24644;SDS011;12780;45.502;9.146;2022-09-12T12:11:44;7.60;;;2.65;;
24644;SDS011;12780;45.502;9.146;2022-09-12T12:14:16;6.78;;;3.40;;
24644;SDS011;12780;45.502;9.146;2022-09-12T12:16:45;6.00;;;3.30;;
24644;SDS011;12780;45.502;9.146;2022-09-12T12:21:41;9.40;;;3.20;;
24644;SDS011;12780;45.502;9.146;2022-09-12T12:26:42;5.70;;;3.30;;
24644;SDS011;12780;45.502;9.146;2022-09-12T12:29:35;7.40;;;3.50;;
24644;SDS011;12780;45.502;9.146;2022-09-12T12:52:30;5.35;;;2.20;;
24644;SDS011;12780;45.502;9.146;2022-09-12T12:55:37;3.88;;;2.20;;
24644;SDS011;12780;45.502;9.146;2022-09-12T13:03:35;7.20;;;2.30;;
24644;SDS011;12780;45.502;9.146;2022-09-12T13:06:05;6.63;;;2.35;;
24644;SDS011;12780;45.502;9.146;2022-09-12T13:08:37;5.13;;;2.20;;
24644;SDS011;12780;45.502;9.146;2022-09-12T13:11:08;10.05;;;2.58;;
24644;SDS011;12780;45.502;9.146;2022-09-12T13:13:44;5.82;;;2.20;;
24644;SDS011;12780;45.502;9.146;2022-09-12T13:16:33;10.73;;;2.50;;
24644;SDS011;12780;45.502;9.146;2022-09-12T13:19:04;16.70;;;2.70;;
24644;SDS011;12780;45.502;9.146;2022-09-12T13:21:35;7.23;;;2.50;;
24644;SDS011;12780;45.502;9.146;2022-09-12T13:24:11;6.25;;;2.13;;
24644;SDS011;12780;45.502;9.146;2022-09-12T13:26:41;6.53;;;2.10;;
24644;SDS011;12780;45.502;9.146;2022-09-12T13:29:09;6.70;;;1.80;;
24644;SDS011;12780;45.502;9.146;2022-09-12T13:31:35;11.15;;;2.58;;
24644;SDS011;12780;45.502;9.146;2022-09-12T13:34:03;4.93;;;2.03;;
24644;SDS011;12780;45.502;9.146;2022-09-12T13:42:07;4.63;;;2.03;;
24644;SDS011;12780;45.502;9.146;2022-09-12T13:47:45;3.22;;;1.70;;
24644;SDS011;12780;45.502;9.146;2022-09-12T13:50:20;5.18;;;2.35;;
24644;SDS011;12780;45.502;9.146;2022-09-12T13:52:57;6.53;;;1.97;;
24644;SDS011;12780;45.502;9.146;2022-09-12T13:55:30;6.95;;;1.80;;
24644;SDS011;12780;45.502;9.146;2022-09-12T13:58:02;5.45;;;2.08;;
24644;SDS011;12780;45.502;9.146;2022-09-12T14:00:40;3.80;;;2.15;;
24644;SDS011;12780;45.502;9.146;2022-09-12T14:03:28;8.32;;;2.00;;
24644;SDS011;12780;45.502;9.146;2022-09-12T14:06:15;11.00;;;2.08;;
24644;SDS011;12780;45.502;9.146;2022-09-12T14:08:43;4.35;;;2.25;;
24644;SDS011;12780;45.502;9.146;2022-09-12T14:11:11;6.47;;;2.70;;
24644;SDS011;12780;45.502;9.146;2022-09-12T14:13:49;6.95;;;2.30;;
24644;SDS011;12780;45.502;9.146;2022-09-12T14:16:16;7.70;;;2.30;;
24644;SDS011;12780;45.502;9.146;2022-09-12T14:18:44;12.82;;;2.25;;
24644;SDS011;12780;45.502;9.146;2022-09-12T14:23:54;5.23;;;2.50;;
24644;SDS011;12780;45.502;9.146;2022-09-12T14:26:21;5.65;;;2.35;;
24644;SDS011;12780;45.502;9.146;2022-09-12T14:28:48;8.15;;;2.28;;
24644;SDS011;12780;45.502;9.146;2022-09-12T14:34:07;7.05;;;2.10;;
24644;SDS011;12780;45.502;9.146;2022-09-12T14:36:51;7.40;;;1.92;;
24644;SDS011;12780;45.502;9.146;2022-09-12T14:42:04;5.75;;;1.75;;
24644;SDS011;12780;45.502;9.146;2022-09-12T14:44:35;9.45;;;1.60;;
24644;SDS011;12780;45.502;9.146;2022-09-12T14:47:18;11.55;;;3.75;;
24644;SDS011;12780;45.502;9.146;2022-09-12T14:49:47;10.90;;;3.03;;
24644;SDS011;12780;45.502;9.146;2022-09-12T14:52:23;6.47;;;1.85;;
24644;SDS011;12780;45.502;9.146;2022-09-12T14:55:02;8.23;;;1.95;;
24644;SDS011;12780;45.502;9.146;2022-09-12T14:57:48;8.07;;;3.20;;
24644;SDS011;12780;45.502;9.146;2022-09-12T15:00:52;4.55;;;1.73;;
24644;SDS011;12780;45.502;9.146;2022-09-12T15:03:34;5.00;;;2.03;;
24644;SDS011;12780;45.502;9.146;2022-09-12T15:06:02;7.38;;;2.92;;
24644;SDS011;12780;45.502;9.146;2022-09-12T15:08:31;6.05;;;2.00;;
24644;SDS011;12780;45.502;9.146;2022-09-12T15:10:58;3.67;;;1.42;;
24644;SDS011;12780;45.502;9.146;2022-09-12T15:13:24;2.70;;;1.80;;
24644;SDS011;12780;45.502;9.146;2022-09-12T15:15:55;4.97;;;1.75;;
24644;SDS011;12780;45.502;9.146;2022-09-12T15:18:26;6.75;;;1.88;;
24644;SDS011;12780;45.502;9.146;2022-09-12T15:20:58;6.85;;;2.60;;
24644;SDS011;12780;45.502;9.146;2022-09-12T15:25:51;2.95;;;1.73;;
24644;SDS011;12780;45.502;9.146;2022-09-12T15:28:18;5.05;;;1.70;;
24644;SDS011;12780;45.502;9.146;2022-09-12T15:30:46;4.32;;;1.60;;
24644;SDS011;12780;45.502;9.146;2022-09-12T15:33:14;3.63;;;1.50;;
24644;SDS011;12780;45.502;9.146;2022-09-12T15:35:42;9.40;;;1.90;;
24644;SDS011;12780;45.502;9.146;2022-09-12T15:38:07;5.60;;;1.48;;
24644;SDS011;12780;45.502;9.146;2022-09-12T15:40:33;11.18;;;2.17;;
24644;SDS011;12780;45.502;9.146;2022-09-12T15:42:58;2.67;;;1.60;;
24644;SDS011;12780;45.502;9.146;2022-09-12T15:45:25;10.05;;;3.00;;
24644;SDS011;12780;45.502;9.146;2022-09-12T15:47:52;6.03;;;1.80;;
24644;SDS011;12780;45.502;9.146;2022-09-12T15:50:19;7.10;;;2.00;;
24644;SDS011;12780;45.502;9.146;2022-09-12T15:52:44;2.03;;;1.38;;
24644;SDS011;12780;45.502;9.146;2022-09-12T15:55:20;3.78;;;1.40;;
24644;SDS011;12780;45.502;9.146;2022-09-12T15:57:47;6.03;;;1.88;;
24644;SDS011;12780;45.502;9.146;2022-09-12T16:00:14;3.90;;;1.60;;
24644;SDS011;12780;45.502;9.146;2022-09-12T16:02:41;3.92;;;1.67;;
24644;SDS011;12780;45.502;9.146;2022-09-12T16:05:10;7.65;;;2.63;;
24644;SDS011;12780;45.502;9.146;2022-09-12T16:07:44;5.88;;;1.63;;
24644;SDS011;12780;45.502;9.146;2022-09-12T16:10:14;3.60;;;1.80;;
24644;SDS011;12780;45.502;9.146;2022-09-12T16:12:41;3.67;;;1.77;;
24644;SDS011;12780;45.502;9.146;2022-09-12T16:15:10;15.10;;;1.88;;
24644;SDS011;12780;45.502;9.146;2022-09-12T16:17:37;1.95;;;1.50;;
24644;SDS011;12780;45.502;9.146;2022-09-12T16:20:03;8.30;;;2.13;;
24644;SDS011;12780;45.502;9.146;2022-09-12T16:22:28;7.45;;;1.73;;
24644;SDS011;12780;45.502;9.146;2022-09-12T16:24:54;7.35;;;1.63;;
24644;SDS011;12780;45.502;9.146;2022-09-12T16:27:20;4.72;;;1.80;;
24644;SDS011;12780;45.502;9.146;2022-09-12T16:29:46;4.90;;;1.70;;
24644;SDS011;12780;45.502;9.146;2022-09-12T16:32:11;9.40;;;1.80;;
24644;SDS011;12780;45.502;9.146;2022-09-12T16:34:37;9.93;;;2.15;;
24644;SDS011;12780;45.502;9.146;2022-09-12T16:37:03;7.20;;;1.70;;
24644;SDS011;12780;45.502;9.146;2022-09-12T16:39:29;9.38;;;2.33;;
24644;SDS011;12780;45.502;9.146;2022-09-12T16:41:55;5.47;;;1.85;;
24644;SDS011;12780;45.502;9.146;2022-09-12T16:44:20;10.13;;;1.80;;
24644;SDS011;12780;45.502;9.146;2022-09-12T16:46:46;5.65;;;1.90;;
24644;SDS011;12780;45.502;9.146;2022-09-12T16:49:11;7.85;;;2.33;;
24644;SDS011;12780;45.502;9.146;2022-09-12T16:51:37;5.45;;;1.80;;
24644;SDS011;12780;45.502;9.146;2022-09-12T16:54:03;5.10;;;2.10;;
24644;SDS011;12780;45.502;9.146;2022-09-12T16:56:28;7.72;;;2.00;;
24644;SDS011;12780;45.502;9.146;2022-09-12T16:58:54;3.50;;;1.92;;
24644;SDS011;12780;45.502;9.146;2022-09-12T17:01:21;6.97;;;1.88;;
24644;SDS011;12780;45.502;9.146;2022-09-12T17:03:51;7.70;;;1.90;;
24644;SDS011;12780;45.502;9.146;2022-09-12T17:06:20;2.65;;;1.63;;
24644;SDS011;12780;45.502;9.146;2022-09-12T17:08:47;5.10;;;1.90;;
24644;SDS011;12780;45.502;9.146;2022-09-12T17:13:49;4.15;;;2.08;;
24644;SDS011;12780;45.502;9.146;2022-09-12T17:16:16;6.22;;;2.08;;
24644;SDS011;12780;45.502;9.146;2022-09-12T17:18:43;9.55;;;2.47;;
24644;SDS011;12780;45.502;9.146;2022-09-12T17:21:09;11.32;;;2.20;;
24644;SDS011;12780;45.502;9.146;2022-09-12T17:23:36;7.65;;;2.00;;
24644;SDS011;12780;45.502;9.146;2022-09-12T17:26:02;6.32;;;2.50;;
24644;SDS011;12780;45.502;9.146;2022-09-12T17:28:28;3.00;;;1.90;;
24644;SDS011;12780;45.502;9.146;2022-09-12T17:30:55;6.72;;;2.22;;
24644;SDS011;12780;45.502;9.146;2022-09-12T17:33:23;5.68;;;2.13;;
24644;SDS011;12780;45.502;9.146;2022-09-12T17:35:49;4.38;;;2.00;;
24644;SDS011;12780;45.502;9.146;2022-09-12T17:38:15;6.05;;;1.92;;
24644;SDS011;12780;45.502;9.146;2022-09-12T17:40:41;5.65;;;1.92;;
24644;SDS011;12780;45.502;9.146;2022-09-12T17:43:08;4.30;;;2.10;;
24644;SDS011;12780;45.502;9.146;2022-09-12T17:45:35;5.90;;;1.95;;
24644;SDS011;12780;45.502;9.146;2022-09-12T17:48:01;9.13;;;2.38;;
24644;SDS011;12780;45.502;9.146;2022-09-12T17:50:27;9.95;;;2.53;;
24644;SDS011;12780;45.502;9.146;2022-09-12T17:52:53;10.27;;;2.53;;
24644;SDS011;12780;45.502;9.146;2022-09-12T17:55:19;7.88;;;2.38;;
24644;SDS011;12780;45.502;9.146;2022-09-12T17:57:45;5.68;;;2.50;;
24644;SDS011;12780;45.502;9.146;2022-09-12T18:00:10;6.70;;;3.05;;
24644;SDS011;12780;45.502;9.146;2022-09-12T18:02:36;7.50;;;2.92;;
24644;SDS011;12780;45.502;9.146;2022-09-12T18:05:03;12.38;;;2.90;;